createdAt,value
2022-10-28T00:05:17.573Z,13.20
2022-10-28T00:11:08.699Z,19.88
2022-10-28T00:16:59.563Z,17.52
2022-10-28T00:22:46.256Z,17.33
2022-10-28T00:28:33.171Z,26.83
2022-10-28T00:34:21.450Z,13.05
2022-10-28T00:40:08.853Z,15.23
2022-10-28T00:45:56.472Z,14.20
2022-10-28T00:51:48.661Z,23.88
2022-10-28T00:57:37.568Z,17.77
2022-10-28T01:03:24.928Z,22.50
2022-10-28T01:09:11.553Z,20.98
2022-10-28T01:15:32.673Z,13.57
2022-10-28T01:21:34.606Z,12.60
2022-10-28T01:27:36.361Z,14.70
2022-10-28T01:33:38.984Z,15.35
2022-10-28T01:39:31.679Z,16.00
2022-10-28T01:51:32.350Z,20.73
2022-10-28T01:57:20.856Z,15.00
2022-10-28T02:03:09.364Z,22.48
2022-10-28T02:09:31.487Z,18.90
2022-10-28T02:15:38.721Z,21.70
2022-10-28T02:21:47.711Z,18.95
2022-10-28T02:27:42.492Z,19.05
2022-10-28T02:33:34.342Z,24.70
2022-10-28T02:39:36.585Z,20.40
2022-10-28T02:45:28.392Z,23.20
2022-10-28T02:51:23.069Z,29.23
2022-10-28T02:57:19.668Z,27.80
2022-10-28T03:03:06.307Z,16.05
2022-10-28T03:08:53.828Z,16.50
2022-10-28T03:14:40.675Z,16.20
2022-10-28T03:20:27.640Z,19.80
2022-10-28T03:26:14.246Z,12.90
2022-10-28T03:32:00.899Z,21.98
2022-10-28T03:37:47.575Z,18.98
2022-10-28T03:43:34.185Z,16.17
2022-10-28T03:49:21.095Z,14.55
2022-10-28T03:55:08.180Z,15.52
2022-10-28T04:00:55.725Z,17.05
2022-10-28T04:06:42.446Z,23.42
2022-10-28T04:12:29.035Z,10.93
2022-10-28T04:18:15.710Z,23.90
2022-10-28T04:24:02.702Z,29.30
2022-10-28T04:29:49.578Z,20.23
2022-10-28T04:35:39.805Z,20.13
2022-10-28T04:41:26.687Z,29.48
2022-10-28T04:47:13.313Z,24.98
2022-10-28T04:53:00.093Z,19.42
2022-10-28T04:58:48.777Z,31.42
2022-10-28T05:04:35.345Z,21.65
2022-10-28T05:10:21.993Z,20.40
2022-10-28T05:16:08.810Z,25.65
2022-10-28T05:21:55.473Z,20.40
2022-10-28T05:27:42.213Z,25.05
2022-10-28T05:33:28.830Z,22.08
2022-10-28T05:39:15.526Z,13.63
2022-10-28T05:45:02.136Z,15.68
2022-10-28T05:50:48.800Z,22.92
2022-10-28T05:56:35.384Z,23.95
2022-10-28T06:02:22.007Z,26.05
2022-10-28T06:08:09.945Z,11.18
2022-10-28T06:13:55.010Z,31.35
2022-10-28T06:19:41.738Z,16.50
2022-10-28T06:25:29.432Z,15.32
2022-10-28T06:31:16.046Z,16.17
2022-10-28T06:37:02.694Z,25.10
2022-10-28T06:43:01.145Z,18.65
2022-10-28T06:48:49.331Z,15.52
2022-10-28T06:54:37.461Z,16.67
2022-10-28T07:00:24.869Z,15.65
2022-10-28T07:06:11.836Z,20.80
2022-10-28T07:12:04.906Z,20.05
2022-10-28T07:17:56.734Z,22.73
2022-10-28T07:23:43.626Z,17.45
2022-10-28T07:29:30.406Z,11.40
2022-10-28T07:35:17.337Z,21.75
2022-10-28T07:41:06.155Z,20.42
2022-10-28T07:46:55.768Z,15.00
2022-10-28T07:52:47.356Z,17.33
2022-10-28T07:58:34.189Z,24.75
2022-10-28T08:04:20.982Z,9.70
2022-10-28T08:10:08.199Z,31.52
2022-10-28T08:15:55.801Z,15.07
2022-10-28T08:21:42.601Z,14.68
2022-10-28T08:27:29.264Z,19.70
2022-10-28T08:33:18.600Z,13.55
2022-10-28T08:39:06.054Z,18.45
2022-10-28T08:45:00.975Z,16.77
2022-10-28T08:50:53.391Z,16.30
2022-10-28T08:56:46.164Z,20.13
2022-10-28T09:02:52.596Z,23.27
2022-10-28T09:08:48.598Z,16.23
2022-10-28T09:14:38.510Z,6.38
2022-10-28T09:20:43.742Z,5.05
2022-10-28T09:26:44.265Z,7.30
2022-10-28T09:33:03.457Z,9.98
2022-10-28T09:38:53.792Z,5.05
2022-10-28T09:44:49.721Z,4.60
2022-10-28T09:50:39.685Z,4.07
2022-10-28T09:56:28.659Z,6.32
2022-10-28T10:02:36.881Z,4.82
2022-10-28T10:15:40.062Z,4.50
2022-10-28T10:21:54.913Z,5.88
2022-10-28T10:27:45.941Z,10.63
2022-10-28T10:33:45.442Z,7.93
2022-10-28T10:39:40.146Z,6.90
2022-10-28T10:45:29.315Z,6.97
2022-10-28T10:51:30.551Z,9.32
2022-10-28T10:57:21.150Z,6.05
2022-10-28T11:03:21.591Z,4.05
2022-10-28T11:09:34.951Z,9.77
2022-10-28T11:15:28.314Z,5.50
2022-10-28T11:21:43.534Z,8.82
2022-10-28T11:28:07.869Z,3.53
2022-10-28T11:34:19.658Z,13.82
2022-10-28T11:40:22.764Z,3.80
2022-10-28T11:46:20.549Z,3.63
2022-10-28T11:52:29.119Z,3.25
2022-10-28T11:58:49.284Z,6.40
2022-10-28T12:05:03.882Z,6.22
2022-10-28T12:11:21.303Z,4.07
2022-10-28T12:17:20.357Z,11.23
2022-10-28T12:23:13.971Z,5.20
2022-10-28T12:29:05.519Z,10.63
2022-10-28T12:35:08.378Z,5.47
2022-10-28T12:41:16.251Z,1.55
2022-10-28T12:47:14.477Z,8.05
2022-10-28T12:53:06.094Z,9.88
2022-10-28T12:59:06.458Z,5.47
2022-10-28T13:04:53.839Z,9.05
2022-10-28T13:10:48.534Z,10.23
2022-10-28T13:17:01.377Z,20.20
2022-10-28T13:22:51.223Z,7.60
2022-10-28T13:28:46.075Z,5.00
2022-10-28T13:34:40.595Z,4.43
2022-10-28T13:40:58.279Z,3.47
2022-10-28T13:46:57.348Z,7.90
2022-10-28T13:52:46.589Z,10.27
2022-10-28T13:58:34.115Z,4.72
2022-10-28T14:04:26.327Z,4.85
2022-10-28T14:10:26.793Z,2.55
2022-10-28T14:16:33.070Z,3.92
2022-10-28T14:22:36.794Z,3.92
2022-10-28T14:28:29.839Z,7.80
2022-10-28T14:34:17.970Z,9.45
2022-10-28T14:40:23.556Z,5.85
2022-10-28T14:46:28.106Z,7.32
2022-10-28T14:52:18.522Z,8.00
2022-10-28T14:58:30.092Z,5.63
2022-10-28T15:04:22.828Z,3.40
2022-10-28T15:10:31.216Z,7.05
2022-10-28T15:16:24.374Z,3.28
2022-10-28T15:22:14.428Z,5.13
2022-10-28T15:28:02.059Z,6.05
2022-10-28T15:33:50.041Z,4.15
2022-10-28T15:39:40.952Z,7.43
2022-10-28T15:45:30.402Z,4.93
2022-10-28T15:51:20.930Z,2.78
2022-10-28T15:57:32.171Z,5.97
2022-10-28T16:03:43.095Z,4.55
2022-10-28T16:09:34.587Z,3.13
2022-10-28T16:15:23.730Z,2.70
2022-10-28T16:22:16.018Z,7.68
2022-10-28T16:28:24.315Z,2.92
2022-10-28T16:34:34.919Z,8.45
2022-10-28T16:40:50.471Z,4.90
2022-10-28T16:46:53.607Z,2.90
2022-10-28T16:52:41.158Z,2.75
2022-10-28T16:58:38.517Z,3.08
2022-10-28T17:04:29.784Z,2.25
2022-10-28T17:10:18.584Z,6.05
2022-10-28T17:16:05.679Z,3.30
2022-10-28T17:21:52.399Z,6.63
2022-10-28T17:27:39.257Z,6.47
2022-10-28T17:33:25.969Z,6.40
2022-10-28T17:39:18.619Z,6.95
2022-10-28T17:45:08.222Z,7.97
2022-10-28T17:50:55.398Z,7.00
2022-10-28T17:56:43.326Z,7.63
2022-10-28T18:02:30.027Z,5.85
2022-10-28T18:08:17.117Z,19.08
2022-10-28T18:14:04.683Z,8.02
2022-10-28T18:19:57.844Z,9.90
2022-10-28T18:25:44.434Z,10.02
2022-10-28T18:31:37.009Z,6.25
2022-10-28T18:37:23.651Z,9.10
2022-10-28T18:43:12.600Z,8.18
2022-10-28T18:54:46.454Z,7.65
2022-10-28T19:00:34.968Z,10.40
2022-10-28T19:06:26.299Z,13.52
2022-10-28T19:12:13.139Z,7.63
2022-10-28T19:18:00.045Z,8.43
2022-10-28T19:23:46.931Z,9.38
2022-10-28T19:29:33.750Z,6.20
2022-10-28T19:35:21.922Z,5.10
2022-10-28T19:41:18.404Z,14.18
2022-10-28T19:47:05.125Z,15.35
2022-10-28T19:52:52.143Z,9.65
2022-10-28T19:58:38.838Z,6.50
2022-10-28T20:04:29.504Z,9.20
2022-10-28T20:10:16.198Z,10.38
2022-10-28T20:16:12.358Z,14.35
2022-10-28T20:21:59.062Z,22.60
2022-10-28T20:27:48.092Z,19.45
2022-10-28T20:33:36.699Z,17.02
2022-10-28T20:39:23.639Z,17.15
2022-10-28T20:45:10.497Z,16.20
2022-10-28T20:51:01.877Z,17.75
2022-10-28T20:56:48.771Z,19.35
2022-10-28T21:02:36.671Z,20.45
2022-10-28T21:08:26.683Z,15.32
2022-10-28T21:14:13.456Z,17.67
2022-10-28T21:26:00.615Z,20.10
2022-10-28T21:31:47.425Z,10.02
2022-10-28T21:37:34.338Z,16.27
2022-10-28T21:43:22.529Z,22.90
2022-10-28T21:49:09.834Z,21.20
2022-10-28T21:54:56.743Z,24.98
2022-10-28T22:00:45.413Z,12.65
2022-10-28T22:06:32.098Z,12.32
2022-10-28T22:12:19.572Z,19.55
2022-10-28T22:18:09.081Z,12.40
2022-10-28T22:23:56.173Z,16.67
2022-10-28T22:29:42.901Z,22.52
2022-10-28T22:35:29.717Z,10.32
2022-10-28T22:41:29.972Z,20.33
2022-10-28T22:47:17.041Z,22.92
2022-10-28T22:53:06.495Z,17.83
2022-10-28T22:58:56.943Z,11.25
2022-10-28T23:04:45.085Z,15.10
2022-10-28T23:10:32.519Z,12.45
2022-10-28T23:16:20.000Z,17.55
2022-10-28T23:22:07.083Z,14.32
2022-10-28T23:27:54.219Z,9.00
2022-10-28T23:33:43.937Z,12.68
2022-10-28T23:39:30.992Z,14.30
2022-10-28T23:45:17.790Z,21.67
2022-10-28T23:51:04.906Z,10.82
2022-10-28T23:56:52.058Z,20.13
